• Join FlightAware (Why Join?)
  • Login
  • US Flag 
11:58AM EDT


 

Airport Tracker/Info


-or-


 

Live Flight TrackerFlight Track Log ✈ RPA3284 ✈ 06-Sep-2013 ✈ KPVD - KPHL

Flight Track Log - Related Links

Times and Time Zones

All times are in EDT time to prevent confusion due to time zone crossing. See the RPA3284 flight status page for this flight to view local times or setup timezone preferences in your user account.

Time Position Orientation Groundspeed Altitude Reporting Facility
EDT Latitude Longitude Course Direction KTS MPH feet Rate Location/Type
03:53PM 41.7331 -71.4219 65° Northeast 153 176 600  Level Boston Center
03:55PM 41.7717 -71.3100 65° Northeast 189 217 3,900 2,100 Climbing Boston Center
03:56PM 41.7333 -71.2494 130° Southeast 230 265 6,300 2,760 Climbing Boston Center
03:57PM 41.6458 -71.2483 179° South 239 275 9,400 2,280 Climbing Boston Center
03:58PM 41.5708 -71.2497 181° South 292 336 10,900 1,860 Climbing Boston Center
03:59PM 41.4625 -71.2489 180° South 342 394 13,300 2,100 Climbing Boston Center
04:00PM 41.3731 -71.2506 181° South 354 407 15,100 1,920 Climbing Boston Center
04:01PM 41.2606 -71.2719 188° South 365 420 17,100 1,560 Climbing Boston Center
04:02PM 41.2011 -71.3614 229° Southwest 354 407 18,300 1,320 Climbing Boston Center
04:03PM 41.1314 -71.4922 235° Southwest 371 427 19,800 840 Climbing Boston Center
04:04PM 41.0656 -71.5839 226° Southwest 383 441 20,000 60 Climbing Boston Center
04:05PM 40.9978 -71.7222 237° Southwest 388 447 20,000  Level Boston Center
04:06PM 40.9317 -71.8358 232° Southwest 402 463 20,000  Level Boston Center
04:07PM 40.8697 -71.9322 230° Southwest 402 463 20,000  Level Boston Center
04:08PM 40.8014 -72.0481 232° Southwest 396 456 20,000  Level Boston Center
04:09PM 40.7267 -72.1689 231° Southwest 396 456 20,000  Level Boston Center
04:10PM 40.6561 -72.2814 230° Southwest 402 463 20,000  Level Boston Center
04:11PM 40.5914 -72.3936 233° Southwest 402 463 20,000  Level Boston Center
04:12PM 40.5289 -72.5083 234° Southwest 397 457 20,000  Level Boston Center
04:14PM 40.3633 -72.7814 232° Southwest 396 456 20,000  Level New York Center
04:15PM 40.2989 -72.8911 232° Southwest 396 456 20,000  Level New York Center
04:16PM 40.2303 -73.0058 232° Southwest 396 456 20,000  Level New York Center
04:17PM 40.1633 -73.1178 232° Southwest 396 456 20,000  Level New York Center
04:18PM 40.0964 -73.2319 233° Southwest 396 456 20,000  Level New York Center
04:19PM 40.0275 -73.3381 230° Southwest 391 450 20,000  Level New York Center
04:20PM 39.9756 -73.4281 233° Southwest 391 450 20,000  Level New York Center
04:21PM 39.8911 -73.5575 230° Southwest 391 450 20,000  Level New York Center
04:22PM 39.8239 -73.6683 232° Southwest 391 450 20,000  Level New York Center
04:23PM 39.7581 -73.7697 230° Southwest 377 434 20,000 -660 Level Washington Center
04:24PM 39.6908 -73.8764 231° Southwest 372 428 18,700 -1,680 Descending Washington Center
04:25PM 39.6256 -73.9803 231° Southwest 377 434 16,800 -2,040 Descending Washington Center
04:26PM 39.5603 -74.0814 230° Southwest 377 434 14,700 -1,440 Descending Washington Center
04:27PM 39.5261 -74.1978 249° West 352 405 13,900 -420 Descending Washington Center
04:28PM 39.5275 -74.3244 271° West 345 397 13,900 -720 Level Washington Center
04:29PM 39.5289 -74.4533 271° West 351 404 12,500 -1,500 Descending Washington Center
04:30PM 39.5319 -74.5717 272° West 344 396 11,000 -1,200 Descending Washington Center
04:32PM 39.5333 -74.8000 271° West 285 328 9,000 -1,080 Descending Philadelphia TRACON
04:33PM 39.5333 -74.9000 270° West 281 323 7,800 -1,020 Descending Philadelphia TRACON
04:34PM 39.5333 -74.9833 270° West 268 308 7,000 -420 Descending Philadelphia TRACON
04:35PM 39.5167 -75.0667 255° West 225 259 7,000 -360 Level Philadelphia TRACON
04:36PM 39.4667 -75.1333 226° Southwest 232 267 6,300 -540 Descending Philadelphia TRACON
04:37PM 39.5167 -75.1500 346° North 223 257 6,000 -180 Descending Philadelphia TRACON
04:38PM 39.5667 -75.1333 14° North 227 261 6,000  Level Philadelphia TRACON
04:39PM 39.6333 -75.0833 30° Northeast 226 260 6,000 -60 Level Philadelphia TRACON
04:40PM 39.6833 -75.0667 14° North 206 237 5,900  Descending Philadelphia TRACON
04:41PM 39.7333 -75.0833 346° North 178 205 6,000  Climbing Philadelphia TRACON
04:42PM 39.7833 -75.0833 360° North 180 207 6,000  Level Philadelphia TRACON
04:43PM 39.8167 -75.0333 49° Northeast 187 215 6,000 -660 Level Philadelphia TRACON
04:44PM 39.8333 -74.9833 67° East 179 206 4,700 -1,020 Descending Philadelphia TRACON
04:45PM 39.8333 -74.9167 90° East 183 211 4,000 -600 Descending Philadelphia TRACON
04:46PM 39.8833 -74.9167 360° North 170 196 3,500 -480 Descending Philadelphia TRACON
04:47PM 39.9333 -74.9333 346° North 177 204 3,000 -300 Descending Philadelphia TRACON
04:48PM 39.9167 -75.0000 252° West 179 206 2,900 -300 Descending Philadelphia TRACON
04:49PM 39.9000 -75.0667 252° West 172 198 2,500 -780 Descending Philadelphia TRACON
04:50PM 39.9000 -75.1167 270° West 172 198 1,500 -900 Descending Philadelphia TRACON
04:51PM 39.8833 -75.1667 247° West 122 140 800 -660 Descending Philadelphia TRACON
04:52PM 39.8833 -75.2167 270° West 131 151 200 -600 Descending Philadelphia TRACON
04:54PM 39.8667 -75.2333 North  Level FlightAware Approximate
05:01PM 39.8722 -75.2409 North  Level Estimated